FIN246 EDDH-EFHK
Flight info
| Callsign | FIN246 |
|---|---|
| Flight time | N/A |
| Altitude | 39000 |
| Route | LUGEG3C LUGEG P605 GESKA DCT EKRAL DCT ALAMI DCT OKEVU DCT EVADI Y370 DIVAM |
| Aircraft | A20N/M-SDE2E3FGHIRWXY/LB1 |
Departure
| Time | 2026-05-06 12:33 |
|---|---|
| Airport | Hamburg Helmut Schmidt Airport (EDDH) |
Arrival
| Time | N/A |
|---|---|
| Airport | Helsinki Vantaa Airport (EFHK) |
| Time | Latitude | Longitude | Altitude | Speed | Heading |
|---|---|---|---|---|---|
| 2026-05-06 12:05 | 53.63004 | 10.00373 | 46 ft | 0 kts | 122° |
| 2026-05-06 12:10 | 53.63004 | 10.00372 | 46 ft | 0 kts | 122° |
| 2026-05-06 12:17 | 53.63012 | 10.00352 | 44 ft | 2 kts | 123° |
| 2026-05-06 12:17 | 53.63021 | 10.00329 | 43 ft | 2 kts | 124° |
| 2026-05-06 12:17 | 53.63030 | 10.00306 | 45 ft | 2 kts | 127° |
| 2026-05-06 12:17 | 53.63040 | 10.00284 | 41 ft | 2 kts | 129° |
| 2026-05-06 12:18 | 53.63051 | 10.00263 | 45 ft | 2 kts | 134° |
| 2026-05-06 12:18 | 53.63063 | 10.00244 | 45 ft | 2 kts | 144° |
| 2026-05-06 12:18 | 53.63078 | 10.00230 | 45 ft | 2 kts | 164° |
| 2026-05-06 12:18 | 53.63092 | 10.00227 | 47 ft | 1 kts | 181° |
| 2026-05-06 12:19 | 53.63096 | 10.00227 | 47 ft | 0 kts | 179° |
| 2026-05-06 12:21 | 53.63091 | 10.00227 | 47 ft | 3 kts | 179° |
| 2026-05-06 12:21 | 53.63030 | 10.00181 | 46 ft | 14 kts | 212° |
| 2026-05-06 12:22 | 53.62936 | 10.00076 | 45 ft | 16 kts | 210° |
| 2026-05-06 12:22 | 53.62878 | 10.00033 | 45 ft | 1 kts | 198° |
| 2026-05-06 12:22 | 53.62834 | 9.99993 | 43 ft | 13 kts | 212° |
| 2026-05-06 12:22 | 53.62741 | 9.99902 | 46 ft | 18 kts | 208° |
| 2026-05-06 12:23 | 53.62639 | 9.99752 | 44 ft | 22 kts | 255° |
| 2026-05-06 12:23 | 53.62608 | 9.99485 | 41 ft | 25 kts | 259° |
| 2026-05-06 12:23 | 53.62577 | 9.99210 | 42 ft | 24 kts | 259° |
| 2026-05-06 12:23 | 53.62547 | 9.98945 | 45 ft | 23 kts | 259° |
| 2026-05-06 12:24 | 53.62515 | 9.98663 | 45 ft | 26 kts | 258° |
| 2026-05-06 12:24 | 53.62481 | 9.98357 | 45 ft | 26 kts | 259° |
| 2026-05-06 12:24 | 53.62413 | 9.98062 | 44 ft | 29 kts | 235° |
| 2026-05-06 12:24 | 53.62284 | 9.97796 | 43 ft | 28 kts | 231° |
| 2026-05-06 12:25 | 53.62184 | 9.97573 | 41 ft | 3 kts | 250° |
| 2026-05-06 12:25 | 53.62184 | 9.97572 | 41 ft | 0 kts | 251° |
| 2026-05-06 12:28 | 53.62184 | 9.97571 | 41 ft | 1 kts | 251° |
| 2026-05-06 12:29 | 53.62181 | 9.97507 | 43 ft | 12 kts | 274° |
| 2026-05-06 12:29 | 53.62196 | 9.97440 | 42 ft | 0 kts | 303° |
| 2026-05-06 12:30 | 53.62197 | 9.97438 | 42 ft | 2 kts | 303° |
| 2026-05-06 12:30 | 53.62235 | 9.97381 | 44 ft | 14 kts | 332° |
| 2026-05-06 12:30 | 53.62334 | 9.97406 | 44 ft | 0 kts | 47° |
| 2026-05-06 12:32 | 53.62363 | 9.97462 | 44 ft | 25 kts | 49° |
| 2026-05-06 12:32 | 53.62633 | 9.98006 | 46 ft | 93 kts | 50° |
| 2026-05-06 12:33 | 53.63163 | 9.99071 | 53 ft | 141 kts | 50° |
| 2026-05-06 12:33 | 53.63792 | 10.00335 | 644 ft | 140 kts | 51° |
| 2026-05-06 12:33 | 53.64398 | 10.01601 | 1392 ft | 137 kts | 52° |
| 2026-05-06 12:33 | 53.64988 | 10.02867 | 1989 ft | 144 kts | 52° |
| 2026-05-06 12:34 | 53.65643 | 10.04275 | 2511 ft | 161 kts | 52° |
| 2026-05-06 12:34 | 53.66377 | 10.05838 | 3049 ft | 182 kts | 52° |
| 2026-05-06 12:34 | 53.67209 | 10.07593 | 3742 ft | 198 kts | 53° |
| 2026-05-06 12:34 | 53.68097 | 10.09456 | 4560 ft | 209 kts | 53° |
| 2026-05-06 12:35 | 53.69012 | 10.11378 | 4886 ft | 211 kts | 53° |
| 2026-05-06 12:35 | 53.69934 | 10.13319 | 4990 ft | 212 kts | 53° |
| 2026-05-06 12:35 | 53.70857 | 10.15262 | 5004 ft | 212 kts | 53° |
| 2026-05-06 12:35 | 53.71786 | 10.17227 | 5012 ft | 223 kts | 53° |
| 2026-05-06 12:36 | 53.72813 | 10.19486 | 5001 ft | 253 kts | 54° |
| 2026-05-06 12:36 | 53.73881 | 10.21857 | 4998 ft | 254 kts | 54° |
| 2026-05-06 12:36 | 53.74946 | 10.24218 | 5000 ft | 252 kts | 54° |
| 2026-05-06 12:36 | 53.76013 | 10.26578 | 5004 ft | 253 kts | 54° |
| 2026-05-06 12:37 | 53.77081 | 10.28939 | 5003 ft | 253 kts | 54° |
| 2026-05-06 12:37 | 53.78135 | 10.31272 | 5001 ft | 252 kts | 54° |
| 2026-05-06 12:37 | 53.79214 | 10.33658 | 5010 ft | 252 kts | 54° |
| 2026-05-06 12:37 | 53.80265 | 10.35987 | 5017 ft | 252 kts | 54° |
| 2026-05-06 12:38 | 53.81330 | 10.38347 | 5020 ft | 251 kts | 54° |
| 2026-05-06 12:38 | 53.82388 | 10.40696 | 5025 ft | 252 kts | 54° |
| 2026-05-06 12:38 | 53.83454 | 10.43060 | 5020 ft | 252 kts | 54° |
| 2026-05-06 12:38 | 53.84517 | 10.45426 | 5030 ft | 253 kts | 54° |
| 2026-05-06 12:39 | 53.85588 | 10.47808 | 5313 ft | 257 kts | 54° |
| 2026-05-06 12:39 | 53.86678 | 10.50234 | 6264 ft | 260 kts | 54° |
| 2026-05-06 12:39 | 53.87763 | 10.52653 | 7311 ft | 265 kts | 53° |
| 2026-05-06 12:39 | 53.88893 | 10.55181 | 8240 ft | 274 kts | 53° |
| 2026-05-06 12:40 | 53.90063 | 10.57800 | 9173 ft | 283 kts | 52° |
| 2026-05-06 12:40 | 53.91266 | 10.60494 | 9644 ft | 288 kts | 52° |
| 2026-05-06 12:40 | 53.92481 | 10.63214 | 9817 ft | 290 kts | 52° |
| 2026-05-06 12:40 | 53.93702 | 10.65950 | 9880 ft | 291 kts | 52° |
| 2026-05-06 12:41 | 53.95027 | 10.68534 | 9881 ft | 290 kts | 46° |
| 2026-05-06 12:41 | 53.96475 | 10.71140 | 10101 ft | 318 kts | 46° |
| 2026-05-06 12:41 | 53.97984 | 10.73874 | 10578 ft | 336 kts | 47° |
| 2026-05-06 12:41 | 53.99599 | 10.76807 | 11426 ft | 343 kts | 47° |
| 2026-05-06 12:42 | 54.01246 | 10.79803 | 12314 ft | 349 kts | 47° |
| 2026-05-06 12:42 | 54.02923 | 10.82860 | 13201 ft | 355 kts | 47° |
| 2026-05-06 12:42 | 54.04627 | 10.85969 | 14019 ft | 362 kts | 47° |
| 2026-05-06 12:42 | 54.06336 | 10.89092 | 14740 ft | 369 kts | 47° |
| 2026-05-06 12:43 | 54.08103 | 10.92327 | 15447 ft | 376 kts | 47° |
| 2026-05-06 12:43 | 54.09899 | 10.95619 | 16199 ft | 382 kts | 47° |
| 2026-05-06 12:43 | 54.11718 | 10.98957 | 16973 ft | 387 kts | 47° |
| 2026-05-06 12:43 | 54.13555 | 11.02344 | 17742 ft | 392 kts | 47° |
| 2026-05-06 12:44 | 54.15421 | 11.05801 | 18433 ft | 398 kts | 47° |
| 2026-05-06 12:44 | 54.17299 | 11.09288 | 19144 ft | 401 kts | 47° |
| 2026-05-06 12:44 | 54.19197 | 11.12817 | 19838 ft | 404 kts | 47° |
| 2026-05-06 12:44 | 54.21103 | 11.16366 | 20503 ft | 408 kts | 47° |
| 2026-05-06 12:45 | 54.23027 | 11.19958 | 21190 ft | 412 kts | 47° |
| 2026-05-06 12:45 | 54.24971 | 11.23594 | 21847 ft | 416 kts | 47° |
| 2026-05-06 12:45 | 54.28908 | 11.30980 | 23154 ft | 424 kts | 47° |
| 2026-05-06 12:46 | 54.30903 | 11.34730 | 23758 ft | 427 kts | 47° |
| 2026-05-06 12:46 | 54.32890 | 11.38471 | 24310 ft | 430 kts | 48° |
| 2026-05-06 12:46 | 54.34908 | 11.42275 | 24872 ft | 432 kts | 48° |
| 2026-05-06 12:46 | 54.36913 | 11.46061 | 25397 ft | 436 kts | 48° |
| 2026-05-06 12:47 | 54.38958 | 11.49924 | 25914 ft | 438 kts | 48° |
| 2026-05-06 12:47 | 54.40992 | 11.53761 | 26426 ft | 441 kts | 48° |
| 2026-05-06 12:47 | 54.43062 | 11.57672 | 26936 ft | 444 kts | 48° |
| 2026-05-06 12:47 | 54.45139 | 11.61602 | 27412 ft | 447 kts | 48° |
| 2026-05-06 12:48 | 54.47239 | 11.65582 | 27891 ft | 449 kts | 49° |
| 2026-05-06 12:48 | 54.49342 | 11.69571 | 28364 ft | 452 kts | 49° |
| 2026-05-06 12:48 | 54.51463 | 11.73596 | 28796 ft | 455 kts | 49° |
| 2026-05-06 12:48 | 54.53591 | 11.77642 | 29222 ft | 457 kts | 49° |
| 2026-05-06 12:49 | 54.55734 | 11.81723 | 29639 ft | 460 kts | 49° |
| 2026-05-06 12:49 | 54.57887 | 11.85832 | 30050 ft | 463 kts | 49° |
| 2026-05-06 12:49 | 54.60045 | 11.89956 | 30426 ft | 465 kts | 49° |
| 2026-05-06 12:49 | 54.62242 | 11.94067 | 30808 ft | 468 kts | 46° |
| 2026-05-06 12:50 | 54.64588 | 11.97992 | 31197 ft | 469 kts | 45° |
| 2026-05-06 12:50 | 54.66928 | 12.01922 | 31670 ft | 468 kts | 45° |
| 2026-05-06 12:50 | 54.69253 | 12.05837 | 32170 ft | 467 kts | 45° |
| 2026-05-06 12:50 | 54.70794 | 12.08436 | 32484 ft | 466 kts | 46° |
| 2026-05-06 12:51 | 54.73864 | 12.13622 | 33103 ft | 465 kts | 46° |
| 2026-05-06 12:51 | 54.76166 | 12.17520 | 33551 ft | 463 kts | 46° |
| 2026-05-06 12:51 | 54.77679 | 12.20084 | 33567 ft | 463 kts | 46° |
| 2026-05-06 12:51 | 54.80723 | 12.25256 | 33013 ft | 461 kts | 46° |
| 2026-05-06 12:52 | 54.82249 | 12.27853 | 32476 ft | 463 kts | 46° |
| 2026-05-06 12:52 | 54.84566 | 12.31804 | 32063 ft | 472 kts | 46° |
| 2026-05-06 12:52 | 54.86930 | 12.35839 | 31935 ft | 477 kts | 46° |
| 2026-05-06 12:53 | 54.91663 | 12.43934 | 31918 ft | 477 kts | 46° |
| 2026-05-06 12:53 | 54.96400 | 12.52067 | 31922 ft | 478 kts | 46° |
| 2026-05-06 12:54 | 55.01102 | 12.60167 | 31925 ft | 478 kts | 46° |
| 2026-05-06 12:54 | 55.05826 | 12.68338 | 31923 ft | 479 kts | 46° |
| 2026-05-06 12:55 | 55.10550 | 12.76537 | 31920 ft | 478 kts | 46° |
| 2026-05-06 12:55 | 55.15272 | 12.84761 | 31917 ft | 479 kts | 46° |
| 2026-05-06 12:56 | 55.19977 | 12.92982 | 31921 ft | 479 kts | 46° |
| 2026-05-06 12:56 | 55.24684 | 13.01238 | 31924 ft | 479 kts | 46° |
| 2026-05-06 12:57 | 55.29397 | 13.09534 | 31923 ft | 480 kts | 46° |
| 2026-05-06 12:57 | 55.34101 | 13.17843 | 31922 ft | 480 kts | 46° |
| 2026-05-06 12:58 | 55.38777 | 13.26132 | 31920 ft | 480 kts | 46° |
| 2026-05-06 12:58 | 55.43478 | 13.34496 | 31911 ft | 480 kts | 46° |
| 2026-05-06 12:59 | 55.48176 | 13.42883 | 31917 ft | 481 kts | 46° |
| 2026-05-06 12:59 | 55.52871 | 13.51297 | 31918 ft | 481 kts | 47° |
| 2026-05-06 13:00 | 55.57567 | 13.59741 | 31910 ft | 482 kts | 47° |
| 2026-05-06 13:00 | 55.62264 | 13.68219 | 31921 ft | 482 kts | 47° |
| 2026-05-06 13:01 | 55.66957 | 13.76720 | 31940 ft | 482 kts | 47° |
| 2026-05-06 13:01 | 55.71613 | 13.85183 | 31941 ft | 483 kts | 47° |
| 2026-05-06 13:02 | 55.76296 | 13.93727 | 31942 ft | 482 kts | 47° |
| 2026-05-06 13:02 | 55.80958 | 14.02304 | 31943 ft | 483 kts | 47° |
| 2026-05-06 13:03 | 55.85603 | 14.10929 | 31944 ft | 483 kts | 47° |
| 2026-05-06 13:03 | 55.90259 | 14.19559 | 31935 ft | 483 kts | 47° |
| 2026-05-06 13:04 | 55.94897 | 14.28171 | 31944 ft | 484 kts | 47° |
| 2026-05-06 13:04 | 55.99555 | 14.36854 | 31939 ft | 484 kts | 47° |
| 2026-05-06 13:05 | 56.04211 | 14.45580 | 31940 ft | 485 kts | 47° |
| 2026-05-06 13:05 | 56.08856 | 14.54322 | 31937 ft | 485 kts | 48° |
| 2026-05-06 13:06 | 56.13507 | 14.63108 | 31934 ft | 485 kts | 48° |